createdAt,value
2022-09-14T00:01:26.168Z,18.81
2022-09-14T00:03:28.839Z,18.80
2022-09-14T00:05:30.947Z,18.80
2022-09-14T00:07:33.257Z,18.80
2022-09-14T00:09:35.465Z,18.80
2022-09-14T00:11:37.987Z,18.79
2022-09-14T00:13:42.617Z,18.79
2022-09-14T00:15:46.559Z,18.70
2022-09-14T00:17:49.668Z,18.68
2022-09-14T00:19:53.684Z,18.71
2022-09-14T00:21:57.938Z,18.75
2022-09-14T00:23:59.667Z,18.73
2022-09-14T00:26:07.414Z,18.75
2022-09-14T00:28:09.561Z,18.77
2022-09-14T00:30:11.982Z,18.78
2022-09-14T00:32:13.834Z,18.63
2022-09-14T00:34:19.111Z,18.68
2022-09-14T00:36:25.162Z,18.69
2022-09-14T00:38:27.174Z,18.69
2022-09-14T00:40:29.408Z,18.69
2022-09-14T00:42:31.387Z,18.69
2022-09-14T00:44:33.362Z,18.67
2022-09-14T00:46:46.640Z,18.68
2022-09-14T00:48:50.422Z,18.67
2022-09-14T00:50:54.043Z,18.66
2022-09-14T00:52:57.168Z,18.66
2022-09-14T00:55:02.750Z,18.61
2022-09-14T00:57:05.537Z,18.63
2022-09-14T00:59:15.950Z,18.63
2022-09-14T01:01:18.171Z,18.62
2022-09-14T01:03:20.240Z,18.57
2022-09-14T01:05:35.153Z,18.62
2022-09-14T01:08:03.958Z,18.62
2022-09-14T01:10:27.126Z,18.62
2022-09-14T01:12:44.477Z,18.56
2022-09-14T01:15:14.763Z,18.61
2022-09-14T01:17:54.292Z,18.54
2022-09-14T01:20:19.745Z,18.57
2022-09-14T01:22:46.184Z,18.46
2022-09-14T01:24:57.142Z,18.52
2022-09-14T01:27:01.150Z,18.54
2022-09-14T01:29:18.797Z,18.36
2022-09-14T01:31:34.736Z,18.42
2022-09-14T01:33:50.246Z,18.42
2022-09-14T01:35:56.401Z,18.38
2022-09-14T01:38:02.492Z,18.41
2022-09-14T01:40:14.713Z,18.44
2022-09-14T01:42:20.793Z,18.45
2022-09-14T01:44:27.858Z,18.43
2022-09-14T01:46:39.982Z,18.45
2022-09-14T01:48:57.146Z,18.48
2022-09-14T01:51:01.302Z,18.49
2022-09-14T01:53:31.256Z,18.51
2022-09-14T01:55:44.175Z,18.46
2022-09-14T01:57:57.142Z,18.47
2022-09-14T02:00:04.362Z,18.37
2022-09-14T02:02:10.685Z,18.39
2022-09-14T02:04:19.441Z,18.42
2022-09-14T02:06:37.987Z,18.42
2022-09-14T02:08:48.208Z,18.44
2022-09-14T02:10:50.298Z,18.43
2022-09-14T02:12:54.243Z,18.45
2022-09-14T02:14:56.500Z,18.44
2022-09-14T02:16:59.139Z,18.45
2022-09-14T02:19:01.937Z,18.42
2022-09-14T02:21:12.991Z,18.41
2022-09-14T02:23:15.418Z,18.38
2022-09-14T02:25:17.763Z,18.43
2022-09-14T02:27:20.098Z,18.43
2022-09-14T02:29:22.189Z,18.38
2022-09-14T02:31:45.999Z,18.38
2022-09-14T02:34:09.808Z,18.30
2022-09-14T02:36:26.073Z,18.27
2022-09-14T02:38:51.603Z,18.32
2022-09-14T02:41:42.392Z,18.34
2022-09-14T02:43:56.032Z,18.36
2022-09-14T02:46:24.685Z,18.32
2022-09-14T02:48:49.785Z,18.37
2022-09-14T02:50:59.373Z,18.34
2022-09-14T02:53:10.748Z,18.39
2022-09-14T02:55:17.627Z,18.39
2022-09-14T02:57:19.654Z,18.36
2022-09-14T02:59:21.629Z,18.34
2022-09-14T03:01:25.232Z,18.33
2022-09-14T03:03:27.239Z,18.36
2022-09-14T03:05:29.389Z,18.40
2022-09-14T03:07:31.417Z,18.38
2022-09-14T03:09:33.456Z,18.37
2022-09-14T03:11:35.440Z,18.38
2022-09-14T03:13:37.670Z,18.34
2022-09-14T03:15:40.038Z,18.33
2022-09-14T03:17:47.434Z,18.27
2022-09-14T03:19:49.054Z,18.33
2022-09-14T03:21:51.157Z,18.30
2022-09-14T03:23:55.553Z,18.33
2022-09-14T03:25:59.928Z,18.32
2022-09-14T03:28:02.046Z,18.34
2022-09-14T03:30:05.696Z,18.35
2022-09-14T03:32:07.670Z,18.31
2022-09-14T03:34:11.115Z,18.34
2022-09-14T03:36:18.803Z,18.34
2022-09-14T03:38:21.659Z,18.35
2022-09-14T03:40:24.145Z,18.34
2022-09-14T03:42:26.239Z,18.33
2022-09-14T03:44:28.623Z,18.36
2022-09-14T03:46:30.672Z,18.36
2022-09-14T03:48:33.100Z,18.37
2022-09-14T03:50:34.800Z,18.34
2022-09-14T03:52:37.281Z,18.36
2022-09-14T03:54:39.233Z,18.36
2022-09-14T03:56:41.311Z,18.34
2022-09-14T03:58:44.799Z,18.34
2022-09-14T04:00:46.799Z,18.36
2022-09-14T04:02:49.041Z,18.35
2022-09-14T04:04:51.203Z,18.36
2022-09-14T04:06:53.437Z,18.34
2022-09-14T04:08:55.673Z,18.34
2022-09-14T04:10:58.052Z,18.34
2022-09-14T04:13:02.233Z,18.32
2022-09-14T04:15:08.047Z,18.34
2022-09-14T04:17:10.009Z,18.33
2022-09-14T04:19:12.745Z,18.35
2022-09-14T04:21:16.748Z,18.31
2022-09-14T04:23:18.876Z,18.32
2022-09-14T04:25:20.904Z,18.33
2022-09-14T04:27:22.931Z,18.27
2022-09-14T04:29:24.885Z,18.27
2022-09-14T04:31:27.154Z,18.28
2022-09-14T04:33:34.928Z,18.27
2022-09-14T04:35:41.602Z,18.24
2022-09-14T04:37:43.551Z,18.22
2022-09-14T04:39:45.705Z,18.23
2022-09-14T04:41:48.115Z,18.23
2022-09-14T04:43:51.304Z,18.23
2022-09-14T04:45:54.173Z,18.25
2022-09-14T04:47:56.195Z,18.23
2022-09-14T04:49:58.424Z,18.23
2022-09-14T04:52:00.093Z,18.17
2022-09-14T04:54:04.084Z,18.18
2022-09-14T04:56:08.413Z,18.16
2022-09-14T04:58:10.484Z,18.10
2022-09-14T05:00:13.487Z,18.13
2022-09-14T05:02:15.553Z,18.04
2022-09-14T05:04:25.389Z,18.08
2022-09-14T05:06:32.706Z,18.06
2022-09-14T05:08:36.793Z,18.05
2022-09-14T05:10:38.834Z,18.06
2022-09-14T05:12:40.969Z,18.04
2022-09-14T05:14:43.082Z,18.04
2022-09-14T05:16:45.665Z,18.06
2022-09-14T05:18:48.719Z,18.05
2022-09-14T05:20:50.912Z,18.06
2022-09-14T05:22:52.547Z,18.06
2022-09-14T05:24:54.609Z,18.04
2022-09-14T05:27:00.219Z,18.05
2022-09-14T05:29:03.902Z,18.04
2022-09-14T05:31:11.287Z,18.05
2022-09-14T05:33:13.538Z,18.04
2022-09-14T05:35:16.327Z,18.05
2022-09-14T05:37:18.415Z,18.05
2022-09-14T05:39:23.296Z,18.02
2022-09-14T05:41:25.780Z,18.05
2022-09-14T05:43:28.887Z,18.03
2022-09-14T05:45:39.972Z,18.02
2022-09-14T05:47:42.489Z,17.98
2022-09-14T05:49:44.494Z,17.94
2022-09-14T05:51:46.570Z,17.96
2022-09-14T05:53:57.001Z,17.94
2022-09-14T05:56:14.529Z,17.94
2022-09-14T05:58:18.191Z,17.96
2022-09-14T06:00:21.935Z,17.95
2022-09-14T06:02:24.062Z,17.96
2022-09-14T06:04:26.390Z,17.95
2022-09-14T06:06:29.374Z,17.95
2022-09-14T06:08:31.847Z,17.96
2022-09-14T06:10:33.985Z,17.96
2022-09-14T06:12:36.144Z,17.98
2022-09-14T06:14:38.200Z,17.89
2022-09-14T06:16:40.417Z,17.94
2022-09-14T06:18:44.256Z,17.92
2022-09-14T06:20:52.663Z,17.94
2022-09-14T06:22:54.763Z,17.93
2022-09-14T06:24:56.350Z,17.89
2022-09-14T06:26:58.629Z,17.94
2022-09-14T06:29:00.921Z,17.99
2022-09-14T06:31:04.779Z,18.00
2022-09-14T06:33:06.855Z,18.03
2022-09-14T06:35:12.385Z,18.04
2022-09-14T06:37:15.345Z,18.06
2022-09-14T06:39:17.834Z,18.05
2022-09-14T06:41:22.554Z,18.08
2022-09-14T06:43:26.032Z,18.13
2022-09-14T06:45:46.710Z,18.11
2022-09-14T06:47:48.750Z,18.15
2022-09-14T06:49:51.339Z,18.15
2022-09-14T06:51:56.301Z,18.14
2022-09-14T06:54:02.790Z,18.21
2022-09-14T06:56:07.556Z,18.25
2022-09-14T06:58:09.906Z,18.24
2022-09-14T07:00:12.423Z,18.28
2022-09-14T07:02:15.042Z,18.29
2022-09-14T07:04:17.855Z,18.32
2022-09-14T07:06:22.539Z,18.32
2022-09-14T07:08:24.642Z,18.32
2022-09-14T07:10:28.436Z,18.28
2022-09-14T07:12:30.455Z,18.32
2022-09-14T07:14:32.727Z,18.28
2022-09-14T07:16:36.655Z,18.36
2022-09-14T07:18:39.102Z,18.39
2022-09-14T07:20:41.258Z,18.42
2022-09-14T07:22:43.312Z,18.44
2022-09-14T07:24:45.308Z,18.45
2022-09-14T07:26:47.023Z,18.45
2022-09-14T07:28:56.798Z,18.49
2022-09-14T07:31:00.619Z,18.49
2022-09-14T07:33:02.688Z,18.55
2022-09-14T07:35:05.586Z,18.58
2022-09-14T07:37:07.837Z,18.62
2022-09-14T07:39:12.882Z,18.64
2022-09-14T07:41:15.261Z,18.67
2022-09-14T07:43:16.875Z,18.69
2022-09-14T07:45:18.468Z,18.70
2022-09-14T07:47:20.118Z,18.73
2022-09-14T07:49:22.434Z,18.66
2022-09-14T07:51:25.204Z,18.70
2022-09-14T07:53:26.881Z,18.73
2022-09-14T07:55:43.241Z,18.74
2022-09-14T07:57:56.117Z,18.75
2022-09-14T07:59:58.809Z,18.72
2022-09-14T08:02:00.599Z,18.74
2022-09-14T08:04:05.450Z,18.76
2022-09-14T08:06:11.260Z,18.78
2022-09-14T08:08:12.862Z,18.79
2022-09-14T08:10:15.010Z,18.81
2022-09-14T08:12:16.678Z,18.85
2022-09-14T08:14:18.352Z,18.87
2022-09-14T08:16:21.144Z,18.86
2022-09-14T08:18:22.768Z,18.81
2022-09-14T08:20:24.569Z,18.87
2022-09-14T08:22:26.873Z,18.93
2022-09-14T08:24:28.675Z,18.99
2022-09-14T08:26:31.413Z,18.98
2022-09-14T08:28:33.995Z,19.03
2022-09-14T08:30:35.634Z,19.03
2022-09-14T08:32:37.278Z,19.11
2022-09-14T08:34:39.007Z,19.15
2022-09-14T08:36:42.054Z,19.16
2022-09-14T08:38:43.974Z,19.17
2022-09-14T08:40:46.597Z,19.17
2022-09-14T08:42:49.218Z,19.24
2022-09-14T08:44:56.527Z,19.22
2022-09-14T08:47:03.052Z,19.27
2022-09-14T08:49:13.311Z,19.26
2022-09-14T08:51:17.152Z,19.26
2022-09-14T08:53:18.785Z,19.24
2022-09-14T08:55:57.475Z,19.29
2022-09-14T08:58:36.089Z,19.31
2022-09-14T09:00:59.326Z,19.32
2022-09-14T09:03:18.916Z,19.26
2022-09-14T09:05:26.479Z,19.30
2022-09-14T09:07:49.124Z,19.32
2022-09-14T09:09:54.676Z,19.32
2022-09-14T09:11:57.602Z,19.33
2022-09-14T09:14:00.602Z,19.40
2022-09-14T09:16:24.756Z,19.39
2022-09-14T09:18:47.591Z,19.41
2022-09-14T09:20:59.161Z,19.45
2022-09-14T09:23:23.751Z,19.41
2022-09-14T09:25:46.644Z,19.45
2022-09-14T09:27:48.343Z,19.44
2022-09-14T09:29:50.003Z,19.44
2022-09-14T09:31:57.826Z,19.46
2022-09-14T09:34:00.861Z,19.48
2022-09-14T09:36:02.553Z,19.46
2022-09-14T09:38:13.318Z,19.45
2022-09-14T09:40:16.739Z,19.43
2022-09-14T09:42:24.460Z,19.46
2022-09-14T09:44:26.156Z,19.44
2022-09-14T09:46:31.426Z,19.49
2022-09-14T09:48:43.083Z,19.56
2022-09-14T09:51:20.916Z,19.60
2022-09-14T09:53:25.289Z,19.61
2022-09-14T09:55:41.931Z,19.64
2022-09-14T09:57:43.754Z,19.65
2022-09-14T09:59:46.898Z,19.74
2022-09-14T10:01:48.796Z,19.77
2022-09-14T10:04:22.407Z,19.79
2022-09-14T10:06:24.050Z,19.78
2022-09-14T10:08:26.507Z,19.82
2022-09-14T10:10:48.344Z,19.85
2022-09-14T10:12:52.992Z,19.86
2022-09-14T10:15:13.335Z,19.97
2022-09-14T10:17:21.370Z,20.08
2022-09-14T10:19:26.265Z,20.17
2022-09-14T10:21:27.880Z,20.20
2022-09-14T10:23:33.523Z,20.36
2022-09-14T10:25:51.514Z,20.49
2022-09-14T10:27:56.143Z,20.58
2022-09-14T10:30:00.928Z,20.72
2022-09-14T10:32:13.710Z,20.92
2022-09-14T10:34:20.691Z,21.10
2022-09-14T10:36:47.817Z,21.17
2022-09-14T10:39:07.541Z,21.42
2022-09-14T10:41:29.184Z,21.57
2022-09-14T10:43:51.977Z,21.73
2022-09-14T10:46:01.491Z,21.83
2022-09-14T10:48:21.140Z,21.83
2022-09-14T10:50:41.947Z,21.94
2022-09-14T10:53:02.335Z,21.95
2022-09-14T10:55:37.199Z,22.02
2022-09-14T10:57:57.353Z,22.04
2022-09-14T11:00:12.336Z,22.04
2022-09-14T11:02:16.985Z,21.97
2022-09-14T11:04:41.553Z,22.06
2022-09-14T11:06:46.196Z,22.09
2022-09-14T11:09:15.991Z,22.19
2022-09-14T11:11:23.567Z,22.25
2022-09-14T11:14:03.426Z,22.24
2022-09-14T11:16:18.359Z,22.30
2022-09-14T11:18:44.703Z,22.28
2022-09-14T11:21:25.047Z,22.30
2022-09-14T11:23:54.527Z,22.32
2022-09-14T11:26:19.476Z,22.35
2022-09-14T11:28:50.360Z,22.34
2022-09-14T11:31:06.673Z,22.35
2022-09-14T11:33:19.715Z,22.35
2022-09-14T11:35:43.437Z,22.45
2022-09-14T11:37:59.547Z,22.59
2022-09-14T11:40:10.426Z,22.71
2022-09-14T11:42:31.153Z,22.90
2022-09-14T11:44:39.409Z,23.06
2022-09-14T11:46:59.965Z,23.24
2022-09-14T11:49:15.309Z,23.39
2022-09-14T11:51:52.620Z,23.49
2022-09-14T11:53:54.615Z,23.52
2022-09-14T11:55:56.529Z,23.60
2022-09-14T11:57:59.965Z,23.68
2022-09-14T12:00:30.576Z,23.70
2022-09-14T12:02:32.252Z,23.72
2022-09-14T12:04:33.998Z,23.85
2022-09-14T12:06:38.437Z,23.96
2022-09-14T12:08:42.838Z,24.05
2022-09-14T12:11:23.857Z,24.15
2022-09-14T12:13:25.654Z,24.21
2022-09-14T12:15:43.148Z,24.10
2022-09-14T12:17:45.381Z,24.03
2022-09-14T12:19:50.449Z,23.74
2022-09-14T12:21:52.140Z,23.84
2022-09-14T12:23:58.039Z,23.89
2022-09-14T12:26:12.255Z,24.01
2022-09-14T12:28:40.168Z,24.09
2022-09-14T12:30:42.014Z,24.19
2022-09-14T12:32:44.023Z,24.26
2022-09-14T12:34:45.658Z,24.37
2022-09-14T12:36:47.199Z,24.42
2022-09-14T12:38:55.202Z,24.48
2022-09-14T12:41:14.966Z,24.49
2022-09-14T12:43:38.010Z,24.43
2022-09-14T12:45:59.912Z,24.33
2022-09-14T12:48:01.597Z,24.23
2022-09-14T12:50:16.308Z,24.16
2022-09-14T12:52:30.154Z,24.08
2022-09-14T12:54:51.469Z,23.91
2022-09-14T12:57:25.618Z,23.90
2022-09-14T12:59:45.695Z,23.80
2022-09-14T13:02:25.221Z,23.95
2022-09-14T13:04:33.811Z,24.17
2022-09-14T13:06:47.465Z,24.35
2022-09-14T13:08:56.839Z,24.47
2022-09-14T13:10:58.600Z,24.56
2022-09-14T13:13:02.641Z,24.46
2022-09-14T13:15:15.728Z,24.53
2022-09-14T13:17:17.585Z,24.46
2022-09-14T13:19:24.146Z,24.32
2022-09-14T13:21:25.828Z,24.32
2022-09-14T13:23:36.449Z,24.15
2022-09-14T13:25:45.306Z,24.14
2022-09-14T13:27:49.915Z,24.11
2022-09-14T13:30:20.106Z,23.96
2022-09-14T13:32:22.199Z,23.96
2022-09-14T13:34:36.747Z,23.97
2022-09-14T13:36:55.059Z,23.89
2022-09-14T13:39:01.616Z,23.94
2022-09-14T13:41:08.153Z,23.90
2022-09-14T13:43:11.923Z,23.92
2022-09-14T13:45:13.908Z,23.92
2022-09-14T13:47:20.030Z,23.97
2022-09-14T13:49:21.811Z,23.99
2022-09-14T13:51:28.214Z,23.98
2022-09-14T13:53:38.355Z,24.01
2022-09-14T13:55:39.984Z,23.99
2022-09-14T13:58:10.629Z,24.02
2022-09-14T14:00:20.428Z,24.16
2022-09-14T14:02:23.002Z,24.26
2022-09-14T14:04:29.601Z,24.41
2022-09-14T14:06:41.775Z,24.58
2022-09-14T14:08:43.436Z,24.82
2022-09-14T14:10:49.091Z,25.03
2022-09-14T14:12:51.015Z,25.22
2022-09-14T14:14:58.833Z,25.45
2022-09-14T14:17:20.274Z,25.73
2022-09-14T14:19:30.232Z,25.99
2022-09-14T14:21:33.631Z,26.15
2022-09-14T14:23:43.255Z,26.16
2022-09-14T14:26:06.100Z,26.09
2022-09-14T14:28:23.254Z,26.20
2022-09-14T14:30:26.973Z,26.20
2022-09-14T14:32:29.745Z,26.29
2022-09-14T14:34:31.450Z,26.41
2022-09-14T14:36:33.050Z,26.42
2022-09-14T14:38:35.127Z,26.57
2022-09-14T14:40:37.683Z,26.68
2022-09-14T14:42:40.089Z,26.73
2022-09-14T14:44:46.042Z,26.79
2022-09-14T14:46:48.055Z,26.94
2022-09-14T14:48:49.673Z,26.98
2022-09-14T14:50:51.328Z,27.11
2022-09-14T14:52:53.390Z,27.16
2022-09-14T14:54:56.215Z,27.28
2022-09-14T14:56:58.657Z,27.35
2022-09-14T14:59:02.388Z,27.44
2022-09-14T15:01:04.808Z,27.47
2022-09-14T15:03:09.531Z,27.56
2022-09-14T15:05:12.348Z,27.69
2022-09-14T15:07:14.590Z,27.68
2022-09-14T15:09:21.633Z,27.78
2022-09-14T15:11:23.913Z,27.83
2022-09-14T15:13:26.199Z,27.49
2022-09-14T15:15:28.537Z,27.55
2022-09-14T15:17:31.161Z,27.48
2022-09-14T15:19:33.677Z,27.60
2022-09-14T15:21:36.079Z,27.67
2022-09-14T15:23:38.511Z,27.71
2022-09-14T15:25:40.845Z,27.71
2022-09-14T15:27:43.234Z,27.73
2022-09-14T15:29:45.480Z,27.76
2022-09-14T15:31:47.837Z,27.71
2022-09-14T15:33:50.110Z,27.71
2022-09-14T15:35:56.221Z,27.59
2022-09-14T15:37:58.606Z,27.53
2022-09-14T15:40:01.033Z,27.58
2022-09-14T15:42:03.821Z,27.54
2022-09-14T15:44:06.496Z,27.61
2022-09-14T15:46:08.794Z,27.60
2022-09-14T15:48:15.094Z,27.63
2022-09-14T15:50:17.534Z,27.60
2022-09-14T15:52:20.328Z,27.57
2022-09-14T15:54:32.502Z,27.57
2022-09-14T15:56:42.393Z,27.49
2022-09-14T15:58:48.104Z,27.51
2022-09-14T16:00:51.128Z,27.42
2022-09-14T16:02:53.490Z,27.11
2022-09-14T16:04:55.943Z,27.07
2022-09-14T16:06:58.353Z,26.96
2022-09-14T16:09:02.930Z,26.90
2022-09-14T16:11:07.035Z,26.72
2022-09-14T16:13:09.456Z,26.72
2022-09-14T16:15:12.347Z,26.61
2022-09-14T16:17:14.666Z,26.56
2022-09-14T16:19:16.894Z,26.45
2022-09-14T16:21:23.660Z,26.28
2022-09-14T16:23:26.359Z,26.28
2022-09-14T16:27:49.180Z,26.14
2022-09-14T16:29:53.105Z,26.11
2022-09-14T16:31:55.572Z,25.94
2022-09-14T16:34:00.378Z,25.88
2022-09-14T16:36:05.300Z,25.75
2022-09-14T16:38:09.115Z,25.75
2022-09-14T16:40:13.211Z,25.70
2022-09-14T16:42:17.212Z,25.66
2022-09-14T16:44:21.890Z,25.60
2022-09-14T16:46:25.779Z,25.50
2022-09-14T16:48:28.229Z,25.50
2022-09-14T16:50:38.174Z,25.46
2022-09-14T16:52:41.409Z,25.30
2022-09-14T16:54:43.869Z,25.29
2022-09-14T16:56:47.623Z,25.20
2022-09-14T16:58:52.384Z,25.14
2022-09-14T17:00:54.676Z,25.09
2022-09-14T17:02:57.044Z,25.03
2022-09-14T17:04:59.243Z,24.92
2022-09-14T17:07:01.514Z,24.87
2022-09-14T17:09:08.011Z,24.83
2022-09-14T17:11:11.961Z,24.76
2022-09-14T17:13:14.091Z,24.66
2022-09-14T17:15:16.395Z,24.64
2022-09-14T17:17:18.547Z,24.59
2022-09-14T17:19:21.340Z,24.54
2022-09-14T17:21:27.680Z,24.48
2022-09-14T17:23:29.919Z,24.39
2022-09-14T17:25:33.338Z,24.33
2022-09-14T17:27:35.475Z,24.33
2022-09-14T17:29:40.133Z,24.28
2022-09-14T17:31:44.016Z,24.24
2022-09-14T17:33:47.660Z,24.17
2022-09-14T17:35:52.130Z,24.11
2022-09-14T17:37:54.273Z,24.07
2022-09-14T17:39:56.911Z,24.02
2022-09-14T17:41:59.118Z,23.98
2022-09-14T17:44:04.308Z,23.95
2022-09-14T17:46:08.438Z,23.84
2022-09-14T17:48:11.230Z,23.83
2022-09-14T17:50:13.505Z,23.80
2022-09-14T17:56:24.242Z,23.68
2022-09-14T17:58:27.800Z,23.65
2022-09-14T18:00:30.115Z,23.60
2022-09-14T18:02:32.479Z,23.58
2022-09-14T18:04:34.745Z,23.54
2022-09-14T18:06:40.508Z,23.51
2022-09-14T18:08:45.775Z,23.48
2022-09-14T18:10:48.068Z,23.40
2022-09-14T18:12:52.346Z,23.39
2022-09-14T18:14:54.658Z,23.37
2022-09-14T18:16:59.989Z,23.33
2022-09-14T18:19:02.845Z,23.26
2022-09-14T18:21:06.224Z,23.24
2022-09-14T18:23:08.868Z,23.21
2022-09-14T18:25:11.393Z,23.17
2022-09-14T18:27:13.639Z,23.15
2022-09-14T18:29:17.614Z,23.09
2022-09-14T18:31:20.376Z,23.08
2022-09-14T18:33:22.778Z,23.02
2022-09-14T18:35:25.179Z,22.96
2022-09-14T18:37:27.478Z,22.92
2022-09-14T18:39:29.954Z,22.89
2022-09-14T18:41:34.292Z,22.86
2022-09-14T18:43:37.070Z,22.77
2022-09-14T18:45:39.320Z,22.77
2022-09-14T18:47:41.607Z,22.73
2022-09-14T18:49:43.896Z,22.67
2022-09-14T18:51:46.076Z,22.64
2022-09-14T18:53:49.215Z,22.61
2022-09-14T18:55:51.490Z,22.51
2022-09-14T18:57:53.781Z,22.50
2022-09-14T18:59:55.969Z,22.48
2022-09-14T19:04:09.405Z,22.39
2022-09-14T19:06:14.391Z,22.31
2022-09-14T19:08:16.638Z,22.30
2022-09-14T19:10:18.994Z,22.31
2022-09-14T19:12:21.378Z,22.18
2022-09-14T19:14:23.997Z,22.19
2022-09-14T19:16:26.482Z,22.19
2022-09-14T19:18:28.784Z,22.12
2022-09-14T19:20:48.679Z,22.06
2022-09-14T19:22:53.191Z,21.99
2022-09-14T19:24:55.398Z,21.94
2022-09-14T19:26:57.079Z,21.86
2022-09-14T19:29:01.993Z,21.75
2022-09-14T19:31:07.309Z,21.70
2022-09-14T19:33:09.793Z,21.65
2022-09-14T19:35:12.404Z,21.57
2022-09-14T19:37:14.630Z,21.57
2022-09-14T19:39:17.289Z,21.52
2022-09-14T19:41:21.053Z,21.48
2022-09-14T19:43:23.211Z,21.38
2022-09-14T19:45:25.524Z,21.37
2022-09-14T19:47:27.982Z,21.30
2022-09-14T19:49:30.274Z,21.23
2022-09-14T19:51:32.638Z,21.21
2022-09-14T19:53:36.255Z,21.16
2022-09-14T19:55:39.027Z,21.15
2022-09-14T19:57:41.289Z,21.08
2022-09-14T19:59:43.558Z,21.01
2022-09-14T20:01:46.487Z,20.98
2022-09-14T20:03:49.598Z,20.97
2022-09-14T20:06:00.992Z,20.90
2022-09-14T20:08:03.290Z,20.91
2022-09-14T20:10:06.103Z,20.83
2022-09-14T20:12:08.379Z,20.84
2022-09-14T20:14:13.150Z,20.83
2022-09-14T20:16:18.521Z,20.79
2022-09-14T20:18:20.838Z,20.72
2022-09-14T20:20:23.653Z,20.70
2022-09-14T20:22:26.009Z,20.70
2022-09-14T20:24:31.261Z,20.62
2022-09-14T20:26:43.346Z,20.59
2022-09-14T20:28:45.766Z,20.56
2022-09-14T20:30:58.255Z,20.59
2022-09-14T20:33:00.613Z,20.55
2022-09-14T20:35:02.854Z,20.53
2022-09-14T20:37:05.299Z,20.49
2022-09-14T20:39:08.075Z,20.37
2022-09-14T20:41:12.078Z,20.43
2022-09-14T20:43:13.726Z,20.42
2022-09-14T20:45:16.257Z,20.37
2022-09-14T20:47:18.514Z,20.36
2022-09-14T20:49:24.200Z,20.31
2022-09-14T20:51:27.371Z,20.26
2022-09-14T20:53:34.439Z,20.21
2022-09-14T20:55:42.173Z,20.11
2022-09-14T20:57:44.369Z,20.14
2022-09-14T20:59:46.986Z,20.17
2022-09-14T21:01:50.567Z,20.10
2022-09-14T21:03:53.719Z,20.03
2022-09-14T21:05:56.317Z,20.05
2022-09-14T21:07:58.052Z,20.01
2022-09-14T21:10:00.241Z,20.00
2022-09-14T21:12:02.946Z,20.00
2022-09-14T21:14:05.550Z,19.98
2022-09-14T21:16:10.335Z,19.95
2022-09-14T21:18:15.685Z,19.95
2022-09-14T21:20:19.829Z,19.93
2022-09-14T21:22:22.066Z,19.93
2022-09-14T21:24:25.311Z,19.86
2022-09-14T21:26:29.918Z,19.87
2022-09-14T21:28:32.342Z,19.87
2022-09-14T21:30:34.413Z,19.81
2022-09-14T21:32:36.708Z,19.79
2022-09-14T21:34:38.989Z,19.73
2022-09-14T21:36:44.654Z,19.73
2022-09-14T21:38:53.129Z,19.67
2022-09-14T21:40:55.386Z,19.67
2022-09-14T21:42:57.680Z,19.65
2022-09-14T21:44:59.870Z,19.66
2022-09-14T21:47:03.160Z,19.63
2022-09-14T21:49:05.446Z,19.64
2022-09-14T21:51:12.526Z,19.56
2022-09-14T21:53:14.804Z,19.53
2022-09-14T21:55:17.153Z,19.51
2022-09-14T21:57:19.359Z,19.44
2022-09-14T21:59:23.065Z,19.44
2022-09-14T22:01:26.741Z,19.45
2022-09-14T22:03:29.770Z,19.40
2022-09-14T22:05:32.038Z,19.39
2022-09-14T22:07:35.653Z,19.38
2022-09-14T22:09:37.853Z,19.33
2022-09-14T22:11:40.194Z,19.32
2022-09-14T22:13:42.643Z,19.31
2022-09-14T22:15:45.325Z,19.29
2022-09-14T22:17:48.026Z,19.24
2022-09-14T22:19:50.537Z,19.25
2022-09-14T22:21:53.557Z,19.24
2022-09-14T22:23:58.374Z,19.22
2022-09-14T22:26:05.269Z,19.21
2022-09-14T22:28:07.691Z,19.17
2022-09-14T22:30:11.030Z,19.16
2022-09-14T22:32:13.300Z,19.17
2022-09-14T22:34:16.476Z,19.15
2022-09-14T22:36:18.854Z,19.11
2022-09-14T22:38:22.880Z,19.06
2022-09-14T22:40:25.159Z,19.06
2022-09-14T22:42:28.333Z,18.99
2022-09-14T22:44:30.520Z,19.00
2022-09-14T22:46:33.044Z,19.00
2022-09-14T22:48:35.891Z,18.96
2022-09-14T22:50:38.125Z,18.96
2022-09-14T22:52:40.368Z,18.95
2022-09-14T22:54:42.639Z,18.95
2022-09-14T22:56:44.830Z,18.93
2022-09-14T22:58:48.142Z,18.90
2022-09-14T23:00:55.829Z,18.87
2022-09-14T23:02:58.042Z,18.83
2022-09-14T23:05:00.268Z,18.85
2022-09-14T23:07:02.480Z,18.79
2022-09-14T23:09:05.399Z,18.80
2022-09-14T23:11:11.103Z,18.77
2022-09-14T23:13:13.335Z,18.73
2022-09-14T23:15:15.610Z,18.74
2022-09-14T23:17:17.872Z,18.70
2022-09-14T23:19:20.154Z,18.69
2022-09-14T23:21:22.414Z,18.67
2022-09-14T23:23:24.629Z,18.62
2022-09-14T23:25:26.794Z,18.66
2022-09-14T23:27:28.948Z,18.64
2022-09-14T23:29:30.995Z,18.56
2022-09-14T23:31:33.488Z,18.57
2022-09-14T23:33:35.638Z,18.58
2022-09-14T23:35:38.059Z,18.52
2022-09-14T23:37:40.198Z,18.51
2022-09-14T23:39:42.518Z,18.49
2022-09-14T23:41:44.621Z,18.47
2022-09-14T23:43:47.479Z,18.47
2022-09-14T23:45:50.061Z,18.44
2022-09-14T23:47:52.230Z,18.39
2022-09-14T23:49:54.385Z,18.37
2022-09-14T23:51:56.531Z,18.38
2022-09-14T23:53:58.630Z,18.34
2022-09-14T23:56:00.988Z,18.29
2022-09-14T23:58:03.922Z,18.29
